This is the latest recevied weather packets stored in our database for station/object IW1QLH-13. If no packets are shown the sender has not sent any weather packets the latest 10 day(s).
| Time | Temp. | Humidity | Pressure | Rain* | Wind** | Luminosity | Snow |
|---|---|---|---|---|---|---|---|
| 1777645508 | 22.78° C | 47% | 1015.9 hPa | - | - | 772 W/m² | - |
| 1777644879 | 23.89° C | 44% | 1016.1 hPa | - | - | 843 W/m² | - |
| 1777643621 | 25.56° C | 27% | 1016 hPa | - | - | 872 W/m² | - |
| 1777642992 | 26.67° C | 26% | 1015.8 hPa | - | - | 886 W/m² | - |
| 1777642361 | 26.67° C | 25% | 1015.9 hPa | - | - | 900 W/m² | - |
| 1777641731 | 25.56° C | 27% | 1015.9 hPa | - | - | 929 W/m² | - |
| 1777641102 | 25.56° C | 28% | 1016 hPa | - | - | 943 W/m² | - |
| 1777639843 | 25.56° C | 29% | 1016.1 hPa | - | - | 958 W/m² | - |
| 1777638586 | 25.56° C | 30% | 1016.2 hPa | - | - | 958 W/m² | - |
| 1777637958 | 25° C | 33% | 1016.4 hPa | - | - | 958 W/m² | - |
| 1777636701 | 25° C | 31% | 1016.5 hPa | - | - | 958 W/m² | - |
| 1777636072 | 25° C | 32% | 1016.6 hPa | - | - | 972 W/m² | - |
| 1777635443 | 25° C | 32% | 1016.8 hPa | - | - | 958 W/m² | - |
| 1777634814 | 25.56° C | 33% | 1016.7 hPa | - | - | 958 W/m² | - |
| 1777634185 | 25° C | 32% | 1016.7 hPa | - | - | 900 W/m² | - |
| 1777633556 | 25° C | 33% | 1016.8 hPa | - | - | 900 W/m² | - |
| 1777632927 | 23.89° C | 35% | 1016.9 hPa | - | - | 886 W/m² | - |
| 1777631660 | 25° C | 35% | 1016.9 hPa | - | - | 858 W/m² | - |
| 1777631027 | 23.89° C | 35% | 1016.9 hPa | - | - | 843 W/m² | - |
| 1777630396 | 23.89° C | 38% | 1016.9 hPa | - | - | 843 W/m² | - |
| 1777629767 | 23.89° C | 40% | 1016.8 hPa | - | - | 800 W/m² | - |
| 1777629135 | 21.67° C | 43% | 1016.9 hPa | - | - | 772 W/m² | - |
| 1777628506 | 22.78° C | 42% | 1016.9 hPa | - | - | 729 W/m² | - |
| 1777627877 | 21.67° C | 45% | 1016.8 hPa | - | - | 715 W/m² | - |
| 1777627248 | 20.56° C | 46% | 1016.8 hPa | - | - | 700 W/m² | - |
* Rain since midnight (hover to see other rain measurements)
** Current wind speed in m/s (hover to see current wind gust speed)